Time;durP1;ratioP1;P1;durP2;ratioP2;P2;SDS_P1;SDS_P2;PMS_P1;PMS_P2;Temp;Humidity;BMP_temperature;BMP_pressure;BME280_temperature;BME280_humidity;BME280_pressure;Samples;Min_cycle;Max_cycle;Signal;HPM_P1;HPM_P2
2021/05/06 00:04:07;;;;;;;17.58;2.72;;;5.30;99.90;;;;;;5029154;28;20453;-44
2021/05/06 00:07:01;;;;;;;6.07;2.50;;;5.30;99.90;;;;;;5029129;28;20061;-45
2021/05/06 00:09:52;;;;;;;14.32;2.92;;;5.30;99.90;;;;;;5028081;28;20041;-45
2021/05/06 00:29:43;;;;;;;14.55;2.85;;;5.10;99.90;;;;;;5029152;28;20072;-46
2021/05/06 00:33:40;;;;;;;18.77;3.08;;;5.20;99.90;;;;;;5028010;28;20427;-43
2021/05/06 00:36:07;;;;;;;10.30;2.90;;;5.20;99.90;;;;;;5028469;28;20025;-46
2021/05/06 00:38:42;;;;;;;14.68;4.53;;;5.20;99.90;;;;;;5025950;28;20048;-47
2021/05/06 00:44:03;;;;;;;8.63;2.85;;;5.20;99.90;;;;;;5028540;28;20053;-46
2021/05/06 00:54:52;;;;;;;12.82;3.03;;;5.10;99.90;;;;;;5027741;28;20071;-46
2021/05/06 00:57:37;;;;;;;10.75;2.78;;;5.10;99.90;;;;;;5027062;28;20117;-45
2021/05/06 01:00:23;;;;;;;15.32;2.67;;;5.00;99.90;;;;;;5028611;28;20168;-45
2021/05/06 01:05:33;;;;;;;14.13;3.10;;;5.10;99.90;;;;;;5027758;28;20164;-45
2021/05/06 01:08:44;;;;;;;11.70;3.45;;;5.00;99.90;;;;;;5026916;28;20018;-45
2021/05/06 01:11:01;;;;;;;9.15;2.75;;;5.00;99.90;;;;;;5027222;28;20034;-45
2021/05/06 01:13:29;;;;;;;15.80;3.42;;;5.00;99.90;;;;;;5027860;28;20040;-45
2021/05/06 01:15:55;;;;;;;9.60;2.42;;;5.00;99.90;;;;;;5027330;28;20033;-45
2021/05/06 01:18:21;;;;;;;13.68;3.22;;;4.90;99.90;;;;;;5027343;28;20026;-45
2021/05/06 01:20:56;;;;;;;7.10;3.03;;;5.00;99.90;;;;;;5027801;28;20071;-45
2021/05/06 01:23:25;;;;;;;8.02;2.60;;;4.90;99.90;;;;;;5027220;28;20490;-45
2021/05/06 01:25:55;;;;;;;15.27;3.30;;;5.00;99.90;;;;;;5027577;28;20030;-44
2021/05/06 01:28:25;;;;;;;14.40;3.15;;;5.00;99.90;;;;;;5026631;28;20522;-45
2021/05/06 01:31:00;;;;;;;10.32;2.72;;;4.90;99.90;;;;;;5028008;28;20398;-45
2021/05/06 01:33:34;;;;;;;8.98;2.50;;;4.90;99.90;;;;;;5027502;28;20052;-45
2021/05/06 01:36:10;;;;;;;10.75;3.92;;;4.90;99.90;;;;;;5026721;28;20033;-44
2021/05/06 01:41:33;;;;;;;11.48;3.25;;;4.90;99.90;;;;;;5027207;28;20024;-44
2021/05/06 01:44:07;;;;;;;11.52;2.75;;;4.80;99.90;;;;;;5027098;28;20025;-44
2021/05/06 01:57:36;;;;;;;9.43;2.35;;;4.70;99.90;;;;;;5026663;28;20036;-45
2021/05/06 02:00:13;;;;;;;7.97;2.83;;;4.70;99.90;;;;;;5027132;28;20028;-45
2021/05/06 02:02:38;;;;;;;15.18;3.20;;;4.70;99.90;;;;;;5025844;28;20025;-45
2021/05/06 02:05:05;;;;;;;11.95;3.00;;;4.80;99.90;;;;;;5027022;28;20022;-45
2021/05/06 02:07:31;;;;;;;11.88;2.60;;;4.70;99.90;;;;;;5027101;28;20120;-45
2021/05/06 02:09:57;;;;;;;12.60;3.03;;;4.70;99.90;;;;;;5026695;28;20021;-44
2021/05/06 02:12:23;;;;;;;13.27;3.85;;;4.60;99.90;;;;;;5027125;28;20506;-44
2021/05/06 02:14:56;;;;;;;11.70;2.65;;;4.60;99.90;;;;;;5026895;28;20037;-47
2021/05/06 02:17:21;;;;;;;13.65;3.00;;;4.60;99.90;;;;;;5026901;28;20499;-45
2021/05/06 02:19:48;;;;;;;13.27;3.00;;;4.60;99.90;;;;;;5025611;28;20101;-46
2021/05/06 02:22:19;;;;;;;9.23;2.92;;;4.60;99.90;;;;;;5027131;28;20105;-46
2021/05/06 02:24:45;;;;;;;;;;;4.60;99.90;;;;;;5027564;28;20595;-45
2021/05/06 02:27:11;;;;;;;10.95;3.15;;;4.60;99.90;;;;;;5027204;28;19955;-45
2021/05/06 02:29:37;;;;;;;8.20;2.40;;;4.60;99.90;;;;;;5025758;28;20021;-46
2021/05/06 02:32:03;;;;;;;8.02;2.55;;;4.60;99.90;;;;;;5026100;28;20672;-44
2021/05/06 02:34:29;;;;;;;9.32;2.80;;;4.60;99.90;;;;;;5026820;28;20029;-46
2021/05/06 02:36:54;;;;;;;9.65;2.90;;;4.60;99.90;;;;;;5026516;28;20073;-45
2021/05/06 02:39:20;;;;;;;12.55;2.90;;;4.60;99.90;;;;;;5025731;28;20033;-45
2021/05/06 02:41:46;;;;;;;12.25;2.78;;;4.50;99.90;;;;;;5026775;28;20075;-45
2021/05/06 02:44:11;;;;;;;9.25;3.25;;;4.60;99.90;;;;;;5026916;28;20113;-45
2021/05/06 02:46:37;;;;;;;10.88;2.65;;;4.50;99.90;;;;;;5027207;28;20435;-45
2021/05/06 02:49:03;;;;;;;12.43;3.05;;;4.60;99.90;;;;;;5028588;28;20108;-45
2021/05/06 02:51:34;;;;;;;17.88;3.78;;;4.50;99.90;;;;;;5030444;28;20066;-45
2021/05/06 02:53:59;;;;;;;12.98;2.75;;;4.60;99.90;;;;;;5030105;28;20025;-45
2021/05/06 02:56:33;;;;;;;11.65;2.60;;;4.50;99.90;;;;;;5028720;28;20087;-45
2021/05/06 02:59:34;;;;;;;11.18;3.15;;;4.50;99.90;;;;;;5029885;28;20087;-48
2021/05/06 03:04:45;;;;;;;15.23;2.78;;;4.50;99.90;;;;;;5030493;28;20322;-45
2021/05/06 03:07:13;;;;;;;8.73;2.83;;;4.50;99.90;;;;;;5028916;28;20438;-45
2021/05/06 03:12:38;;;;;;;8.85;2.92;;;4.50;99.90;;;;;;5029454;28;20026;-45
2021/05/06 03:23:18;;;;;;;8.38;3.10;;;4.50;99.90;;;;;;5027757;28;20411;-44
2021/05/06 03:25:44;;;;;;;13.85;3.15;;;4.50;99.90;;;;;;5025131;28;20194;-46
2021/05/06 03:28:13;;;;;;;10.75;2.83;;;4.50;99.90;;;;;;5027108;28;20053;-45
2021/05/06 03:44:15;;;;;;;13.00;3.72;;;4.50;99.90;;;;;;5026292;28;20033;-45
2021/05/06 03:49:48;;;;;;;10.00;3.42;;;4.60;99.90;;;;;;5025403;28;20052;-45
2021/05/06 04:22:21;;;;;;;7.80;2.70;;;4.90;99.90;;;;;;5028487;28;20037;-44
2021/05/06 04:27:35;;;;;;;10.13;3.25;;;4.90;99.90;;;;;;5025270;28;20029;-44
2021/05/06 04:30:39;;;;;;;11.23;3.50;;;5.00;99.90;;;;;;5028064;28;20045;-44
2021/05/06 04:35:51;;;;;;;10.05;3.45;;;5.10;99.90;;;;;;5025625;28;20243;-45
2021/05/06 04:38:19;;;;;;;12.10;3.50;;;5.20;99.90;;;;;;5026701;28;20010;-45
2021/05/06 04:41:15;;;;;;;14.38;3.55;;;5.40;99.90;;;;;;5027594;28;20525;-45
2021/05/06 04:50:17;;;;;;;14.55;3.30;;;5.60;99.90;;;;;;5026893;28;20029;-44
2021/05/06 04:54:38;;;;;;;10.80;3.65;;;5.80;99.90;;;;;;5023422;28;20068;-46
2021/05/06 05:05:20;;;;;;;12.75;3.78;;;6.10;99.90;;;;;;5027205;28;20083;-46
2021/05/06 05:07:49;;;;;;;14.50;3.97;;;6.20;99.90;;;;;;5026931;28;20101;-47
2021/05/06 05:10:30;;;;;;;12.77;3.85;;;6.30;99.90;;;;;;5026535;28;20018;-46
2021/05/06 05:13:12;;;;;;;;;;;6.30;99.90;;;;;;5025091;28;20437;-45
2021/05/06 05:18:41;;;;;;;17.88;4.88;;;6.40;99.90;;;;;;5025265;28;20025;-44
2021/05/06 05:21:24;;;;;;;10.07;4.80;;;6.40;99.90;;;;;;5026319;28;20024;-45
2021/05/06 05:23:56;;;;;;;17.20;5.07;;;6.40;99.90;;;;;;5026694;28;20022;-47
2021/05/06 05:26:22;;;;;;;14.82;4.90;;;6.50;99.90;;;;;;5024748;28;20017;-45
2021/05/06 05:28:48;;;;;;;16.02;5.70;;;6.50;99.90;;;;;;5026235;28;20037;-46
2021/05/06 05:31:15;;;;;;;17.20;6.20;;;6.60;99.90;;;;;;5025521;28;20044;-45
2021/05/06 05:33:48;;;;;;;11.25;4.38;;;6.60;99.90;;;;;;5025741;28;20034;-45
2021/05/06 05:36:18;;;;;;;11.23;4.78;;;6.60;99.90;;;;;;5023333;28;20053;-45
2021/05/06 05:54:33;;;;;;;9.70;4.97;;;7.10;99.90;;;;;;5025583;28;20089;-45
2021/05/06 05:54:49;;;;;;;18.35;6.35;;;7.20;99.90;;;;;;5026720;28;20111;-44
2021/05/06 05:57:15;;;;;;;15.48;7.65;;;7.20;99.90;;;;;;5026018;28;20037;-44
2021/05/06 05:59:41;;;;;;;13.55;6.38;;;7.00;99.90;;;;;;5026382;28;20018;-44
2021/05/06 06:02:06;;;;;;;19.38;6.97;;;6.80;99.90;;;;;;5026651;28;20326;-44
2021/05/06 06:04:32;;;;;;;14.80;7.50;;;6.70;99.90;;;;;;5026590;28;20434;-44
2021/05/06 06:06:58;;;;;;;14.48;6.38;;;6.40;99.90;;;;;;5026987;28;20536;-44
2021/05/06 06:09:23;;;;;;;12.10;7.25;;;6.40;99.90;;;;;;5026120;28;20391;-45
2021/05/06 06:11:49;;;;;;;15.20;7.70;;;6.30;99.90;;;;;;5026914;28;20022;-44
2021/05/06 06:14:21;;;;;;;19.83;8.68;;;6.20;99.90;;;;;;5027517;28;20040;-44
2021/05/06 06:16:46;;;;;;;15.70;8.38;;;6.30;99.90;;;;;;5026743;28;20483;-44
2021/05/06 06:19:12;;;;;;;18.00;7.82;;;6.20;99.90;;;;;;5026027;28;20032;-44
2021/05/06 06:24:04;;;;;;;13.63;7.68;;;6.10;99.90;;;;;;5030014;28;20506;-45
2021/05/06 06:26:30;;;;;;;17.85;9.10;;;5.90;99.90;;;;;;5028097;28;20300;-44
2021/05/06 06:29:02;;;;;;;19.27;9.38;;;5.80;99.90;;;;;;5028245;28;20038;-45
2021/05/06 06:31:50;;;;;;;26.23;10.30;;;5.70;99.90;;;;;;5027821;28;20152;-45
2021/05/06 06:34:13;;;;;;;19.20;10.20;;;5.50;99.90;;;;;;5015818;28;20254;-45
2021/05/06 06:36:39;;;;;;;18.23;10.68;;;5.40;99.90;;;;;;5029545;28;20498;-44
2021/05/06 06:39:05;;;;;;;22.40;11.27;;;5.30;99.90;;;;;;5028627;28;20104;-44
2021/05/06 06:41:31;;;;;;;20.25;11.27;;;5.20;99.90;;;;;;5027951;28;20036;-44
2021/05/06 06:44:00;;;;;;;18.00;11.70;;;5.00;99.90;;;;;;5029593;28;20037;-43
2021/05/06 06:46:26;;;;;;;17.27;11.05;;;4.70;99.90;;;;;;5029834;28;20029;-44
2021/05/06 06:48:51;;;;;;;23.38;12.43;;;4.60;99.90;;;;;;5029059;28;20521;-44
2021/05/06 06:51:17;;;;;;;20.92;12.93;;;4.50;99.90;;;;;;5029878;28;20037;-44
2021/05/06 06:53:43;;;;;;;22.77;13.85;;;4.60;99.90;;;;;;5028034;28;20025;-45
2021/05/06 06:56:09;;;;;;;25.20;12.85;;;4.60;99.90;;;;;;5027917;28;20338;-45
2021/05/06 06:58:35;;;;;;;16.88;11.68;;;4.70;99.90;;;;;;5027604;28;20026;-44
2021/05/06 07:01:01;;;;;;;21.98;11.82;;;4.80;99.90;;;;;;5029545;28;20030;-45
2021/05/06 07:03:26;;;;;;;20.45;12.07;;;4.90;99.90;;;;;;5029693;28;20448;-46
2021/05/06 07:05:52;;;;;;;21.55;12.82;;;5.00;99.90;;;;;;5029548;28;20021;-45
2021/05/06 07:08:24;;;;;;;20.10;12.25;;;5.00;99.90;;;;;;5029319;28;20036;-45
2021/05/06 07:10:52;;;;;;;20.02;11.48;;;5.10;99.90;;;;;;5028596;28;20029;-45
2021/05/06 07:13:18;;;;;;;22.83;12.57;;;5.00;99.90;;;;;;5029764;28;20526;-45
2021/05/06 07:15:52;;;;;;;23.02;12.50;;;4.80;99.90;;;;;;5029095;28;20280;-46
2021/05/06 07:18:18;;;;;;;21.55;12.48;;;4.70;99.90;;;;;;5028785;28;20117;-47
2021/05/06 07:20:45;;;;;;;18.25;11.82;;;4.80;99.90;;;;;;5029008;28;20601;-45
2021/05/06 07:23:17;;;;;;;21.35;11.40;;;5.00;99.90;;;;;;5029089;28;20017;-45
2021/05/06 07:25:43;;;;;;;19.17;11.73;;;5.10;99.90;;;;;;5028261;28;20022;-45
2021/05/06 07:28:16;;;;;;;20.65;12.85;;;5.10;99.90;;;;;;5028128;28;20052;-46
2021/05/06 07:30:43;;;;;;;19.63;12.07;;;5.30;99.90;;;;;;5028553;28;20039;-46
2021/05/06 07:33:10;;;;;;;22.30;12.57;;;5.50;99.90;;;;;;5023260;28;20483;-46
2021/05/06 07:35:36;;;;;;;18.23;12.15;;;5.40;99.90;;;;;;5008784;28;20423;-45
2021/05/06 07:38:01;;;;;;;18.30;12.27;;;5.50;99.90;;;;;;5008751;28;20030;-46
2021/05/06 07:40:27;;;;;;;16.95;12.55;;;5.60;99.90;;;;;;5008845;28;20056;-45
2021/05/06 07:42:53;;;;;;;17.55;12.10;;;5.70;99.90;;;;;;5024542;28;20037;-52
2021/05/06 07:45:20;;;;;;;19.80;13.13;;;5.60;99.90;;;;;;5023969;28;20026;-45
2021/05/06 07:47:46;;;;;;;18.63;13.43;;;5.70;99.90;;;;;;5008380;28;20060;-48
2021/05/06 07:50:12;;;;;;;16.45;11.90;;;5.60;99.90;;;;;;5008707;28;20033;-45
2021/05/06 07:52:40;;;;;;;19.50;14.70;;;5.60;99.90;;;;;;5008767;28;20388;-45
2021/05/06 07:55:07;;;;;;;21.60;15.10;;;5.50;99.90;;;;;;5006531;28;20628;-47
2021/05/06 07:57:32;;;;;;;27.52;16.63;;;5.40;99.90;;;;;;5007701;28;20030;-45
2021/05/06 07:59:58;;;;;;;19.70;13.52;;;5.50;99.90;;;;;;5023105;28;20052;-45
2021/05/06 08:02:24;;;;;;;17.17;12.88;;;5.30;99.90;;;;;;5008295;28;20026;-52
2021/05/06 08:04:50;;;;;;;17.88;12.43;;;5.50;99.90;;;;;;5023256;28;20029;-45
2021/05/06 08:07:16;;;;;;;17.13;13.27;;;5.70;99.90;;;;;;5007924;28;20034;-45
2021/05/06 08:09:41;;;;;;;21.38;12.63;;;6.10;99.90;;;;;;5006342;28;20104;-49
2021/05/06 08:12:07;;;;;;;15.90;12.63;;;6.40;99.90;;;;;;5008315;28;20041;-46
2021/05/06 08:14:33;;;;;;;20.42;13.07;;;6.50;99.90;;;;;;5011480;28;20116;-44
2021/05/06 08:16:58;;;;;;;14.32;10.98;;;6.80;99.90;;;;;;5027784;28;20017;-45
2021/05/06 08:19:24;;;;;;;17.88;12.55;;;7.00;99.90;;;;;;5026997;28;20017;-46
2021/05/06 08:21:50;;;;;;;15.10;11.20;;;7.30;99.90;;;;;;5026565;28;20347;-46
2021/05/06 08:24:16;;;;;;;14.80;11.30;;;7.30;99.90;;;;;;5008314;28;20030;-46
2021/05/06 08:26:41;;;;;;;15.80;12.07;;;7.30;99.90;;;;;;5007967;28;20037;-46
2021/05/06 08:29:07;;;;;;;13.43;11.90;;;7.40;99.90;;;;;;5007332;28;20029;-45
2021/05/06 08:31:33;;;;;;;12.05;10.07;;;7.50;99.90;;;;;;5006772;28;20654;-46
2021/05/06 08:33:58;;;;;;;11.05;9.93;;;8.00;99.90;;;;;;5007466;28;20038;-46
2021/05/06 08:36:25;;;;;;;10.50;9.15;;;8.40;99.90;;;;;;5008941;28;20053;-45
2021/05/06 08:38:51;;;;;;;9.55;8.43;;;8.80;99.90;;;;;;5007130;28;20033;-45
2021/05/06 08:41:18;;;;;;;7.95;6.97;;;9.40;99.90;;;;;;5007290;28;20022;-46
2021/05/06 08:43:49;;;;;;;7.00;6.28;;;10.20;99.90;;;;;;5007920;28;20080;-46
2021/05/06 08:46:15;;;;;;;;;;;11.50;99.90;;;;;;5007542;28;20022;-46
2021/05/06 08:48:41;;;;;;;5.68;4.70;;;12.60;99.90;;;;;;5007234;28;20334;-46
2021/05/06 08:51:07;;;;;;;5.13;4.63;;;12.30;99.90;;;;;;5007757;28;20026;-46
2021/05/06 08:53:33;;;;;;;4.63;4.25;;;11.70;99.90;;;;;;5012791;28;20522;-47
2021/05/06 08:55:59;;;;;;;5.55;4.97;;;11.50;99.90;;;;;;5026692;28;20036;-47
2021/05/06 08:58:25;;;;;;;5.93;4.55;;;11.00;99.90;;;;;;5026432;28;20172;-46
2021/05/06 09:00:50;;;;;;;4.90;4.50;;;10.70;99.90;;;;;;5026785;28;20498;-45
2021/05/06 09:03:16;;;;;;;5.07;4.57;;;10.90;99.90;;;;;;5026853;28;20037;-46
2021/05/06 09:06:13;;;;;;;5.32;4.82;;;10.90;99.90;;;;;;5028718;28;20071;-45
2021/05/06 09:08:43;;;;;;;5.00;4.50;;;11.10;99.90;;;;;;5028151;28;20025;-46
2021/05/06 09:11:09;;;;;;;4.10;3.70;;;11.30;99.90;;;;;;5028401;28;20025;-46
2021/05/06 09:13:35;;;;;;;4.50;4.10;;;12.90;99.40;;;;;;5028385;28;20037;-46
2021/05/06 09:16:03;;;;;;;3.92;3.60;;;13.70;95.10;;;;;;5028151;28;20554;-46
2021/05/06 09:18:42;;;;;;;3.97;3.67;;;13.90;93.80;;;;;;5027932;28;20152;-46
2021/05/06 09:21:32;;;;;;;4.72;3.97;;;13.90;92.00;;;;;;5027398;28;20157;-45
2021/05/06 09:24:12;;;;;;;5.80;4.73;;;13.90;91.50;;;;;;5024841;28;20030;-45
2021/05/06 09:26:40;;;;;;;4.22;3.83;;;14.00;89.50;;;;;;5026465;28;20018;-45
2021/05/06 09:29:08;;;;;;;4.88;4.45;;;14.60;89.30;;;;;;5026132;28;20084;-44
2021/05/06 09:31:39;;;;;;;5.47;4.57;;;15.20;87.70;;;;;;5026217;28;20491;-44
2021/05/06 09:34:05;;;;;;;;;;;15.00;79.80;;;;;;5027243;28;20034;-47
2021/05/06 09:36:31;;;;;;;5.90;5.07;;;14.80;82.40;;;;;;5008979;28;20060;-45
2021/05/06 09:38:59;;;;;;;5.10;4.57;;;14.70;86.70;;;;;;5005439;28;20105;-45
2021/05/06 09:41:30;;;;;;;6.47;5.13;;;15.80;78.30;;;;;;5006654;28;20025;-46
2021/05/06 09:44:16;;;;;;;5.00;4.38;;;16.80;73.80;;;;;;5006937;28;20022;-45
2021/05/06 09:46:55;;;;;;;4.75;4.20;;;15.80;72.90;;;;;;5004401;28;20029;-45
2021/05/06 09:49:21;;;;;;;5.78;4.05;;;15.40;75.80;;;;;;5005660;28;20030;-45
2021/05/06 09:51:57;;;;;;;5.88;4.30;;;15.10;74.40;;;;;;5017934;28;20036;-46
2021/05/06 09:54:25;;;;;;;6.47;5.03;;;15.00;73.20;;;;;;5021398;28;20362;-45
2021/05/06 09:57:04;;;;;;;6.97;5.13;;;14.10;75.70;;;;;;5026694;28;20088;-45
2021/05/06 09:59:33;;;;;;;5.60;5.10;;;14.00;76.50;;;;;;5024566;28;20499;-44
2021/05/06 10:02:15;;;;;;;6.60;5.35;;;12.90;81.30;;;;;;5028915;28;20033;-45
2021/05/06 10:04:46;;;;;;;7.30;5.35;;;13.00;87.00;;;;;;5030021;28;20068;-44
2021/05/06 10:07:20;;;;;;;6.43;4.97;;;13.00;82.30;;;;;;5028115;28;20053;-46
2021/05/06 10:09:55;;;;;;;8.35;6.43;;;12.90;82.50;;;;;;5029157;28;20461;-46
2021/05/06 10:12:22;;;;;;;10.73;6.97;;;13.00;81.30;;;;;;5030260;28;20048;-45
2021/05/06 10:14:49;;;;;;;11.27;6.28;;;13.10;81.50;;;;;;5030018;28;20038;-46
2021/05/06 10:17:19;;;;;;;8.18;5.65;;;12.50;85.10;;;;;;5029603;28;20045;-45
2021/05/06 10:19:45;;;;;;;8.55;5.55;;;12.30;86.60;;;;;;5027966;28;20447;-45
2021/05/06 10:22:12;;;;;;;10.00;6.05;;;12.10;88.50;;;;;;5027597;28;20121;-46
2021/05/06 10:24:41;;;;;;;6.82;5.57;;;11.80;86.90;;;;;;5029152;28;20022;-46
2021/05/06 10:27:13;;;;;;;8.07;5.40;;;12.60;85.40;;;;;;5030059;28;20414;-46
2021/05/06 10:29:40;;;;;;;12.48;5.43;;;12.60;81.80;;;;;;5029092;28;20057;-47
2021/05/06 10:32:11;;;;;;;11.38;5.60;;;12.60;82.30;;;;;;5029652;28;20063;-46
2021/05/06 10:34:37;;;;;;;7.68;4.53;;;13.80;79.80;;;;;;5029689;28;20044;-45
2021/05/06 10:37:03;;;;;;;7.57;4.45;;;14.70;80.00;;;;;;5026563;28;20033;-45
2021/05/06 10:39:43;;;;;;;7.60;4.95;;;15.10;75.20;;;;;;5007636;28;20113;-45
2021/05/06 10:42:27;;;;;;;5.80;3.95;;;14.70;69.40;;;;;;5010185;28;20038;-46
2021/05/06 10:44:57;;;;;;;10.82;4.97;;;14.40;75.00;;;;;;5009518;28;20053;-46
2021/05/06 10:47:48;;;;;;;5.78;3.88;;;14.20;76.10;;;;;;5009789;28;20026;-46
2021/05/06 10:50:21;;;;;;;7.65;3.60;;;15.00;69.50;;;;;;5024204;28;20384;-46
2021/05/06 10:52:55;;;;;;;5.95;3.03;;;15.40;67.80;;;;;;5029423;28;20506;-46
2021/05/06 10:55:41;;;;;;;6.75;4.00;;;16.80;64.40;;;;;;5028011;28;20132;-46
2021/05/06 10:58:27;;;;;;;7.07;3.75;;;16.00;66.50;;;;;;5008829;28;20508;-46
2021/05/06 11:01:05;;;;;;;5.03;3.35;;;16.60;64.60;;;;;;5009380;28;20030;-45
2021/05/06 11:03:32;;;;;;;8.30;3.30;;;16.80;63.30;;;;;;5009309;28;20025;-46
2021/05/06 11:05:58;;;;;;;5.65;3.15;;;16.70;58.80;;;;;;5016475;28;20541;-47
2021/05/06 11:08:23;;;;;;;5.00;3.35;;;17.50;60.80;;;;;;5026010;28;20057;-47
2021/05/06 11:10:49;;;;;;;6.80;3.17;;;18.10;55.80;;;;;;5028847;28;20025;-47
2021/05/06 11:13:17;;;;;;;5.05;3.33;;;18.00;59.10;;;;;;5028991;28;20471;-46
2021/05/06 11:15:43;;;;;;;6.10;2.92;;;17.80;58.80;;;;;;5028899;28;20029;-47
2021/05/06 11:18:10;;;;;;;5.03;3.58;;;17.40;57.00;;;;;;5028021;28;20033;-47
2021/05/06 11:20:36;;;;;;;5.50;3.40;;;15.90;58.00;;;;;;5028269;28;20053;-46
2021/05/06 11:23:02;;;;;;;5.22;3.38;;;16.70;58.00;;;;;;5027847;28;20049;-46
2021/05/06 11:28:03;;;;;;;5.25;3.03;;;18.80;52.90;;;;;;5027674;28;20136;-46
2021/05/06 11:30:37;;;;;;;4.03;3.28;;;18.00;56.00;;;;;;5027518;28;20498;-49
2021/05/06 11:33:21;;;;;;;5.55;2.80;;;19.30;58.30;;;;;;5033724;28;20110;-44
2021/05/06 11:35:59;;;;;;;7.43;3.13;;;19.30;51.50;;;;;;5027895;28;20418;-48
2021/05/06 11:38:39;;;;;;;4.43;3.05;;;18.60;52.80;;;;;;5023122;28;20033;-47
2021/05/06 11:41:08;;;;;;;6.85;3.05;;;18.20;52.50;;;;;;5024696;28;20200;-46
2021/05/06 11:43:56;;;;;;;5.50;3.28;;;17.80;52.40;;;;;;5027591;28;20180;-46
2021/05/06 11:46:27;;;;;;;5.20;3.15;;;16.50;56.60;;;;;;5025890;28;20075;-46
2021/05/06 11:48:54;;;;;;;;;;;15.60;60.60;;;;;;5026928;28;20029;-46
2021/05/06 11:51:34;;;;;;;6.55;3.35;;;15.10;61.10;;;;;;5027549;28;19909;-45
2021/05/06 11:54:17;;;;;;;7.97;4.20;;;14.40;60.30;;;;;;5024564;28;20098;-45
2021/05/06 11:57:02;;;;;;;7.97;3.80;;;14.20;63.60;;;;;;5028211;28;20288;-46
2021/05/06 11:59:31;;;;;;;6.07;3.35;;;13.80;63.20;;;;;;5027265;28;20034;-45
2021/05/06 12:02:05;;;;;;;5.35;2.50;;;13.70;64.50;;;;;;5026315;28;20025;-46
2021/05/06 12:04:36;;;;;;;7.18;2.70;;;12.50;61.80;;;;;;5027433;28;20039;-46
2021/05/06 12:07:22;;;;;;;4.88;2.63;;;12.40;62.10;;;;;;5026541;28;20021;-44
2021/05/06 12:09:50;;;;;;;3.53;2.50;;;13.30;58.80;;;;;;5026804;28;20026;-45
2021/05/06 12:12:26;;;;;;;6.63;2.78;;;13.90;60.30;;;;;;5027053;28;20025;-45
2021/05/06 12:14:57;;;;;;;6.18;2.70;;;14.60;58.00;;;;;;5027371;28;20032;-44
2021/05/06 12:17:22;;;;;;;4.35;2.50;;;15.10;59.70;;;;;;5027709;28;20068;-45
2021/05/06 12:19:49;;;;;;;5.78;2.90;;;15.10;57.70;;;;;;5027832;28;20068;-47
2021/05/06 12:22:16;;;;;;;7.97;2.83;;;15.60;51.40;;;;;;5027715;28;20164;-45
2021/05/06 12:24:44;;;;;;;4.15;2.90;;;14.80;55.40;;;;;;5027851;28;20057;-45
2021/05/06 12:27:24;;;;;;;5.00;2.75;;;14.80;53.70;;;;;;5027846;28;20029;-45
2021/05/06 12:29:51;;;;;;;5.23;3.10;;;15.20;60.10;;;;;;5027907;28;20061;-45
2021/05/06 12:32:35;;;;;;;5.70;2.78;;;15.70;60.50;;;;;;5027874;28;20513;-46
2021/05/06 12:35:01;;;;;;;9.50;2.85;;;15.70;53.20;;;;;;5027460;28;20108;-45
2021/05/06 12:37:28;;;;;;;3.58;2.60;;;15.70;55.80;;;;;;5006136;28;20049;-44
2021/05/06 12:39:55;;;;;;;4.47;3.10;;;15.90;55.40;;;;;;5006171;28;20115;-45
2021/05/06 12:42:28;;;;;;;5.63;3.33;;;15.60;52.20;;;;;;5007107;28;20030;-44
2021/05/06 12:44:54;;;;;;;5.68;3.53;;;15.10;55.00;;;;;;5008175;28;20026;-44
2021/05/06 12:47:20;;;;;;;4.50;2.88;;;15.60;53.00;;;;;;5007776;28;20037;-44
2021/05/06 12:50:06;;;;;;;5.47;3.30;;;15.80;50.30;;;;;;5022993;28;20356;-44
2021/05/06 12:52:53;;;;;;;5.75;3.10;;;15.30;53.40;;;;;;5020982;28;20033;-44
2021/05/06 12:55:23;;;;;;;6.95;2.92;;;15.40;53.20;;;;;;5027028;28;20028;-47
2021/05/06 12:58:15;;;;;;;4.00;3.22;;;15.40;52.00;;;;;;5026647;28;20120;-44
2021/05/06 13:00:53;;;;;;;5.82;3.17;;;15.70;54.70;;;;;;5026860;28;20025;-44
2021/05/06 13:03:25;;;;;;;6.80;3.38;;;15.70;56.30;;;;;;5027057;28;20045;-45
2021/05/06 13:05:51;;;;;;;7.50;3.80;;;15.60;61.30;;;;;;5025376;28;20036;-46
2021/05/06 13:08:17;;;;;;;3.53;2.65;;;16.00;60.00;;;;;;5026242;28;20017;-45
2021/05/06 13:10:45;;;;;;;4.78;3.20;;;16.00;60.80;;;;;;5027490;28;20277;-46
2021/05/06 13:13:13;;;;;;;8.40;3.00;;;15.90;58.30;;;;;;5044466;28;20296;-45
2021/05/06 13:15:49;;;;;;;6.07;2.88;;;15.50;61.40;;;;;;5030386;28;20072;-45
2021/05/06 13:18:16;;;;;;;5.63;3.22;;;15.50;61.60;;;;;;5026539;28;20067;-44
2021/05/06 13:20:42;;;;;;;8.90;3.38;;;15.00;60.90;;;;;;5027091;28;20071;-46
2021/05/06 13:23:10;;;;;;;6.68;3.30;;;14.60;59.10;;;;;;5025036;28;20116;-45
2021/05/06 13:25:40;;;;;;;4.78;3.10;;;14.30;61.00;;;;;;5026709;28;20503;-45
2021/05/06 13:28:06;;;;;;;6.07;3.85;;;14.50;59.20;;;;;;5025389;28;20588;-45
2021/05/06 13:30:32;;;;;;;6.57;3.60;;;14.30;62.00;;;;;;5025454;28;20112;-45
2021/05/06 13:33:19;;;;;;;8.77;4.00;;;14.10;59.20;;;;;;5025671;28;20026;-45
2021/05/06 13:36:06;;;;;;;5.28;3.50;;;14.10;60.80;;;;;;5027270;28;20026;-44
2021/05/06 13:38:50;;;;;;;5.22;3.30;;;14.20;60.30;;;;;;5025799;28;20441;-46
2021/05/06 13:41:17;;;;;;;7.10;3.25;;;15.00;64.20;;;;;;5015667;28;20131;-45
2021/05/06 13:43:43;;;;;;;7.40;3.55;;;15.20;59.60;;;;;;5019123;28;20031;-45
2021/05/06 13:46:12;;;;;;;4.95;3.50;;;15.50;57.90;;;;;;5026602;28;20100;-45
2021/05/06 13:48:38;;;;;;;9.65;3.17;;;15.50;59.40;;;;;;5025413;28;20033;-44
2021/05/06 13:51:05;;;;;;;11.70;3.70;;;15.30;58.20;;;;;;5026565;28;20483;-46
2021/05/06 13:53:30;;;;;;;5.70;3.50;;;15.10;57.30;;;;;;5025237;28;20044;-44
2021/05/06 13:55:57;;;;;;;5.63;2.85;;;14.80;57.00;;;;;;5024580;28;20519;-46
2021/05/06 13:58:22;;;;;;;5.55;3.55;;;14.60;58.40;;;;;;5025679;28;20909;-46
2021/05/06 14:00:48;;;;;;;8.82;3.30;;;14.40;58.20;;;;;;5026323;28;20105;-47
2021/05/06 14:03:13;;;;;;;7.05;3.05;;;14.10;57.10;;;;;;5026103;28;20083;-45
2021/05/06 14:05:39;;;;;;;5.70;2.80;;;14.00;57.90;;;;;;5024831;28;20438;-45
2021/05/06 14:08:05;;;;;;;6.90;3.10;;;14.20;60.50;;;;;;5025283;28;20478;-46
2021/05/06 14:10:30;;;;;;;6.13;2.95;;;14.40;64.50;;;;;;5025892;28;20425;-45
2021/05/06 14:12:56;;;;;;;6.13;3.35;;;14.10;63.30;;;;;;5026355;28;20038;-44
2021/05/06 14:15:21;;;;;;;4.93;2.92;;;13.90;65.50;;;;;;5026592;28;20071;-46
2021/05/06 14:17:47;;;;;;;4.82;3.08;;;14.30;66.70;;;;;;5023459;28;20037;-45
2021/05/06 14:20:13;;;;;;;5.35;3.03;;;14.40;59.70;;;;;;5025743;28;20112;-46
2021/05/06 14:22:38;;;;;;;7.07;3.15;;;14.60;60.80;;;;;;5026229;28;20017;-45
2021/05/06 14:25:04;;;;;;;6.38;3.22;;;14.80;62.80;;;;;;5025598;28;20132;-46
2021/05/06 14:27:33;;;;;;;7.25;3.50;;;15.00;63.10;;;;;;5025171;28;20103;-46
2021/05/06 14:29:59;;;;;;;5.57;3.13;;;15.00;55.90;;;;;;5025630;28;20130;-45
2021/05/06 14:32:24;;;;;;;4.55;2.92;;;15.00;57.50;;;;;;5025908;28;20590;-45
2021/05/06 14:34:53;;;;;;;3.95;2.67;;;15.00;57.00;;;;;;5024839;28;20026;-48
2021/05/06 14:37:18;;;;;;;5.68;2.78;;;15.10;57.70;;;;;;5025277;28;20140;-45
2021/05/06 14:39:44;;;;;;;4.35;3.20;;;15.30;56.10;;;;;;5025516;28;20550;-48
2021/05/06 14:42:09;;;;;;;6.40;2.97;;;15.20;58.90;;;;;;5017289;28;20026;-45
2021/05/06 14:44:35;;;;;;;4.13;2.50;;;15.50;55.60;;;;;;5007268;28;20040;-46
2021/05/06 14:47:00;;;;;;;5.35;3.03;;;15.50;55.90;;;;;;5008606;28;20029;-46
2021/05/06 14:49:26;;;;;;;4.95;3.38;;;15.40;55.10;;;;;;5016246;28;20113;-47
2021/05/06 14:51:51;;;;;;;4.85;3.20;;;15.30;54.80;;;;;;5009471;28;20030;-46
2021/05/06 14:54:17;;;;;;;7.00;3.03;;;15.20;54.80;;;;;;5009273;28;20038;-45
2021/05/06 14:56:42;;;;;;;6.13;2.55;;;15.20;55.60;;;;;;5008135;28;20033;-45
2021/05/06 14:59:08;;;;;;;4.40;2.75;;;14.60;50.80;;;;;;5009005;28;20029;-45
2021/05/06 15:01:33;;;;;;;5.15;3.33;;;14.80;50.10;;;;;;5015590;28;20021;-45
2021/05/06 15:03:59;;;;;;;6.30;3.40;;;14.40;51.00;;;;;;5049511;28;20029;-46
2021/05/06 15:06:24;;;;;;;3.72;2.83;;;14.10;53.60;;;;;;5033743;28;20025;-47
2021/05/06 15:08:50;;;;;;;4.68;3.33;;;14.40;54.20;;;;;;5009367;28;20033;-45
2021/05/06 15:11:16;;;;;;;7.15;3.10;;;14.60;54.70;;;;;;5008860;28;20492;-44
2021/05/06 15:13:42;;;;;;;3.88;2.45;;;14.60;51.80;;;;;;5009637;28;20064;-46
2021/05/06 15:16:07;;;;;;;4.13;2.83;;;14.40;53.40;;;;;;5008796;28;20033;-44
2021/05/06 15:18:33;;;;;;;6.22;2.70;;;14.70;52.50;;;;;;5008581;28;20041;-46
2021/05/06 15:20:58;;;;;;;5.38;2.75;;;14.50;50.60;;;;;;5008704;28;20261;-45
2021/05/06 15:23:24;;;;;;;6.93;2.38;;;14.70;52.40;;;;;;5025536;28;20083;-48
2021/05/06 15:25:51;;;;;;;3.97;2.55;;;14.70;50.60;;;;;;5028083;28;20017;-48
2021/05/06 15:28:16;;;;;;;5.65;3.00;;;14.60;49.40;;;;;;5027822;28;20022;-45
2021/05/06 15:30:42;;;;;;;4.90;3.00;;;14.10;53.20;;;;;;5026571;28;20095;-45
2021/05/06 15:33:07;;;;;;;4.43;2.92;;;14.30;52.70;;;;;;5028612;28;20049;-46
2021/05/06 15:35:33;;;;;;;4.50;3.10;;;14.60;54.20;;;;;;5027810;28;20032;-48